EmailTwitter


Observations de surface / Québec / EGKB

Régions: Québec | Canada | États-Unis | Europe | France | UK | Elsewhere
Station
Affichage
Infos & localisation pour EGKB | Aide pour décoder les METARs

Observations prises le 2017-02-24 à 09H50 UTC à BIGGIN HILL, UK (EGKB)

Etat du ciel: ciel variable.

Température: 5.0 Celsius

Point de rosée: 0.0 Celsius

Humidité relative: 70%

Facteur vent: 1.

Vents: Nord-ouest à 19 km/h ou 10 noeuds.

Pression au niveau moyen de la mer: 101.60 kilopascals.

Visibilité horizontale: 6.21 milles terrestres ou 9.94 kilomètres.

Observation METAR:

EGKB 240950Z 30010KT 270V330 9999 SCT025 05/00 Q1016=